Time;durP1;ratioP1;P1;durP2;ratioP2;P2;SDS_P1;SDS_P2;PMS_P1;PMS_P2;Temp;Humidity;BMP_temperature;BMP_pressure;BME280_temperature;BME280_humidity;BME280_pressure;Samples;Min_cycle;Max_cycle;Signal;HPM_P1;HPM_P2
2022/10/08 00:00:51;;;;;;;4.33;3.70;;;;;;;20.88;46.97;101587.06;1673105;84;21137;-79
2022/10/08 00:03:18;;;;;;;4.78;3.50;;;;;;;20.88;46.97;101582.91;1672860;85;21125;-79
2022/10/08 00:06:05;;;;;;;5.12;3.72;;;;;;;20.88;46.96;101581.52;1673118;85;21057;-80
2022/10/08 00:08:34;;;;;;;4.87;3.95;;;;;;;20.88;46.96;101577.94;1672904;84;21531;-80
2022/10/08 00:11:04;;;;;;;4.47;3.72;;;;;;;20.88;46.96;101575.99;1673287;85;21488;-79
2022/10/08 00:13:39;;;;;;;4.45;3.85;;;;;;;20.88;46.93;101577.38;1673068;85;21122;-79
2022/10/08 00:16:01;;;;;;;4.22;3.40;;;;;;;20.88;46.94;101573.23;1671691;84;21583;-79
2022/10/08 00:18:28;;;;;;;4.12;3.40;;;;;;;20.88;46.94;101564.10;1673063;85;21090;-80
2022/10/08 00:21:06;;;;;;;5.17;3.95;;;;;;;20.88;46.93;101558.57;1672287;84;21057;-80
2022/10/08 00:23:33;;;;;;;6.97;3.47;;;;;;;20.88;46.96;101561.34;1689154;83;21064;-80
2022/10/08 00:26:06;;;;;;;5.28;3.67;;;;;;;20.88;46.96;101555.80;1685108;85;21140;-79
2022/10/08 00:28:36;;;;;;;6.20;3.80;;;;;;;20.87;46.94;101552.25;1685606;85;21104;-80
2022/10/08 00:31:08;;;;;;;4.37;3.62;;;;;;;20.87;46.95;101548.66;1681249;84;21089;-79
2022/10/08 00:33:37;;;;;;;5.95;3.75;;;;;;;20.87;46.98;101554.19;1677925;85;21143;-79
2022/10/08 00:36:07;;;;;;;5.65;3.77;;;;;;;20.87;46.96;101548.09;1677887;85;21646;-79
2022/10/08 00:38:33;;;;;;;4.40;3.72;;;;;;;20.86;46.94;101547.83;1678552;84;21884;-80
2022/10/08 00:40:59;;;;;;;5.45;3.52;;;;;;;20.87;46.97;101547.27;1677951;84;21379;-79
2022/10/08 00:43:47;;;;;;;4.37;3.35;;;;;;;20.87;46.97;101539.80;1678019;85;21586;-80
2022/10/08 00:46:25;;;;;;;4.95;4.08;;;;;;;20.88;46.96;101540.03;1677995;85;21600;-80
2022/10/08 00:49:01;;;;;;;3.95;3.50;;;;;;;20.87;46.93;101538.98;1678307;84;21653;-79
2022/10/08 00:51:28;;;;;;;5.92;3.75;;;;;;;20.86;46.93;101534.00;1678003;85;21291;-79
2022/10/08 00:53:54;;;;;;;4.15;3.52;;;;;;;20.86;46.94;101532.62;1678386;84;21131;-80
2022/10/08 00:56:21;;;;;;;5.45;3.85;;;;;;;20.87;46.94;101535.65;1678186;85;21100;-80
2022/10/08 00:58:48;;;;;;;3.90;3.17;;;;;;;20.88;46.94;101532.30;1672346;84;21066;-79
2022/10/08 01:01:15;;;;;;;5.17;3.80;;;;;;;20.87;46.93;101529.30;1671309;85;21618;-79
2022/10/08 01:03:41;;;;;;;4.42;3.55;;;;;;;20.87;46.93;101530.68;1660135;85;21136;-79
2022/10/08 01:06:27;;;;;;;4.60;3.65;;;;;;;20.87;46.94;101534.27;1655743;86;21084;-80
2022/10/08 01:09:04;;;;;;;4.40;3.67;;;;;;;20.88;46.93;101533.67;1656041;86;21108;-79
2022/10/08 01:12:23;;;;;;;4.67;3.72;;;;;;;20.86;46.92;101529.85;1644950;86;21140;-79
2022/10/08 01:14:59;;;;;;;4.72;3.30;;;;;;;20.86;46.92;101529.85;1656016;86;21053;-79
2022/10/08 01:17:54;;;;;;;4.55;3.75;;;;;;;20.86;46.89;101526.26;1636422;86;21218;-80
2022/10/08 01:20:36;;;;;;;6.33;3.72;;;;;;;20.85;46.89;101522.67;1656485;86;21041;-79
2022/10/08 01:23:25;;;;;;;4.42;3.42;;;;;;;20.85;46.89;101520.46;1655940;86;21738;-79
2022/10/08 01:26:23;;;;;;;4.80;3.60;;;;;;;20.85;46.91;101521.28;1655945;86;21590;-79
2022/10/08 01:29:33;;;;;;;3.95;3.55;;;;;;;20.84;46.90;101518.25;1655842;86;21084;-79
2022/10/08 01:32:03;;;;;;;5.28;3.77;;;;;;;20.82;46.89;101514.98;1645709;86;21593;-79
2022/10/08 01:34:50;;;;;;;3.90;3.50;;;;;;;20.84;46.89;101510.52;1624061;87;21157;-80
2022/10/08 01:37:24;;;;;;;4.62;3.67;;;;;;;20.82;46.90;101508.63;1662519;84;21384;-80
2022/10/08 01:39:50;;;;;;;5.12;3.35;;;;;;;20.83;46.93;101515.25;1692228;84;21079;-80
2022/10/08 01:42:16;;;;;;;4.08;3.30;;;;;;;20.83;46.93;101510.28;1694235;84;21060;-80
2022/10/08 01:44:49;;;;;;;3.70;3.30;;;;;;;20.82;46.93;101505.30;1687518;84;22082;-80
2022/10/08 01:47:19;;;;;;;4.67;3.42;;;;;;;20.83;46.94;101507.52;1693718;84;21064;-79
2022/10/08 01:49:57;;;;;;;5.67;3.42;;;;;;;20.83;46.95;101509.72;1693871;84;21059;-79
2022/10/08 01:52:30;;;;;;;4.12;3.20;;;;;;;20.83;46.94;101513.88;1691804;84;21278;-79
2022/10/08 01:55:01;;;;;;;5.90;3.80;;;;;;;20.84;46.94;101510.52;1663273;84;21194;-79
2022/10/08 01:57:28;;;;;;;3.65;3.27;;;;;;;20.82;46.95;101503.92;1693427;84;21161;-80
2022/10/08 02:00:05;;;;;;;4.33;3.42;;;;;;;20.84;46.95;101515.48;1693607;84;21087;-79
2022/10/08 02:02:31;;;;;;;5.75;3.70;;;;;;;20.84;46.95;101509.95;1693351;84;21083;-79
2022/10/08 02:04:58;;;;;;;5.03;3.92;;;;;;;20.83;46.96;101505.58;1693649;84;21733;-79
2022/10/08 02:07:29;;;;;;;4.33;3.75;;;;;;;20.84;46.93;101503.59;1693564;84;21051;-80
2022/10/08 02:10:17;;;;;;;4.72;3.60;;;;;;;20.84;46.95;101505.81;1695250;83;21055;-80
2022/10/08 02:12:44;;;;;;;5.33;3.75;;;;;;;20.84;46.96;101504.98;1719302;83;21023;-79
2022/10/08 02:15:30;;;;;;;4.85;3.83;;;;;;;20.83;46.93;101504.19;1718143;83;21135;-80
2022/10/08 02:18:06;;;;;;;4.80;3.67;;;;;;;20.83;46.94;101497.28;1681153;84;21111;-79
2022/10/08 02:20:49;;;;;;;3.85;3.15;;;;;;;20.83;46.93;101499.22;1665997;84;21120;-80
2022/10/08 02:23:29;;;;;;;4.47;3.52;;;;;;;20.84;46.93;101502.22;1665903;86;21526;-79
2022/10/08 02:25:58;;;;;;;4.83;3.67;;;;;;;20.83;46.93;101497.83;1662829;85;21070;-80
2022/10/08 02:29:05;;;;;;;4.30;3.62;;;;;;;20.83;46.92;101504.75;1665861;86;21278;-80
2022/10/08 02:31:56;;;;;;;4.83;3.58;;;;;;;20.83;46.93;101502.81;1684672;84;21048;-79
2022/10/08 02:34:30;;;;;;;4.53;3.80;;;;;;;20.82;46.90;101503.92;1706466;84;21589;-79
2022/10/08 02:37:13;;;;;;;4.22;3.65;;;;;;;20.82;46.93;101513.60;1706011;84;21194;-80
2022/10/08 02:39:42;;;;;;;5.17;3.40;;;;;;;20.82;46.91;101514.16;1705517;84;21048;-80
2022/10/08 02:42:10;;;;;;;4.10;3.70;;;;;;;20.82;46.92;101515.55;1706061;83;21127;-79
2022/10/08 02:44:54;;;;;;;4.55;3.60;;;;;;;20.82;46.95;101516.37;1706031;83;21132;-79
2022/10/08 02:47:22;;;;;;;4.35;3.62;;;;;;;20.82;46.94;101519.69;1704489;83;21080;-80
2022/10/08 02:49:52;;;;;;;5.90;3.80;;;;;;;20.81;46.95;101517.48;1694030;84;21552;-80
2022/10/08 02:52:19;;;;;;;4.67;3.80;;;;;;;20.81;46.95;101517.48;1694218;83;21296;-80
2022/10/08 02:54:45;;;;;;;5.75;3.75;;;;;;;20.82;46.95;101519.13;1717560;83;21051;-80
2022/10/08 02:57:32;;;;;;;5.53;3.80;;;;;;;20.82;46.95;101519.13;1723045;83;21063;-79
2022/10/08 02:59:59;;;;;;;4.62;3.65;;;;;;;20.82;46.94;101517.75;1722708;83;21151;-80
2022/10/08 03:02:30;;;;;;;4.40;3.75;;;;;;;20.82;46.94;101512.78;1722663;83;22208;-80
2022/10/08 03:05:00;;;;;;;5.45;3.50;;;;;;;20.82;46.95;101510.02;1722373;83;21071;-80
2022/10/08 03:07:29;;;;;;;4.87;3.70;;;;;;;20.82;46.93;101512.22;1722878;82;21107;-80
2022/10/08 03:09:55;;;;;;;6.40;3.60;;;;;;;20.82;46.94;101503.09;1723017;82;21032;-79
2022/10/08 03:12:22;;;;;;;4.40;3.60;;;;;;;20.82;46.94;101506.69;1723020;83;21107;-79
2022/10/08 03:14:48;;;;;;;4.20;3.80;;;;;;;20.83;46.96;101509.72;1691097;83;21114;-80
2022/10/08 03:17:18;;;;;;;4.95;3.77;;;;;;;20.83;46.95;101501.42;1723077;83;21525;-80
2022/10/08 03:19:45;;;;;;;3.92;3.37;;;;;;;20.83;46.94;101502.81;1723227;83;21055;-79
2022/10/08 03:22:11;;;;;;;4.22;3.72;;;;;;;20.83;46.92;101501.42;1722722;83;21103;-80
2022/10/08 03:24:37;;;;;;;4.08;3.40;;;;;;;20.83;46.93;101503.36;1710737;83;21596;-79
2022/10/08 03:27:10;;;;;;;4.45;3.45;;;;;;;20.83;46.93;101502.81;1687134;83;21126;-80
2022/10/08 03:29:36;;;;;;;4.55;3.60;;;;;;;20.83;46.93;101500.05;1693040;83;21026;-80
2022/10/08 03:32:02;;;;;;;6.05;3.62;;;;;;;20.83;46.92;101498.66;1682782;84;21100;-79
2022/10/08 03:34:29;;;;;;;3.77;3.37;;;;;;;20.84;46.92;101492.53;1676891;85;21084;-80
2022/10/08 03:36:55;;;;;;;4.97;3.90;;;;;;;20.82;46.93;101492.86;1676993;85;21064;-80
2022/10/08 03:39:21;;;;;;;5.00;3.80;;;;;;;20.83;46.92;101496.45;1649212;85;21614;-80
2022/10/08 03:41:47;;;;;;;4.78;4.08;;;;;;;20.83;46.93;101495.89;1650124;85;21101;-79
2022/10/08 03:44:14;;;;;;;4.10;3.60;;;;;;;20.83;46.92;101494.52;1676743;85;21049;-80
2022/10/08 03:46:40;;;;;;;3.92;3.50;;;;;;;20.82;46.90;101494.24;1677084;85;21052;-80
2022/10/08 03:49:06;;;;;;;4.03;3.37;;;;;;;20.83;46.90;101492.30;1676640;85;21128;-80
2022/10/08 03:51:32;;;;;;;5.10;4.10;;;;;;;20.82;46.89;101488.71;1676511;85;21076;-80
2022/10/08 03:53:58;;;;;;;4.40;3.92;;;;;;;20.83;46.89;101488.16;1676978;85;21045;-79
2022/10/08 03:56:25;;;;;;;3.70;3.40;;;;;;;20.82;46.91;101487.33;1677204;85;21041;-80
2022/10/08 03:58:55;;;;;;;5.22;3.87;;;;;;;20.83;46.88;101495.89;1677208;85;21049;-79
2022/10/08 04:01:21;;;;;;;4.87;3.65;;;;;;;20.83;46.89;101493.12;1654534;84;21634;-80
2022/10/08 04:03:47;;;;;;;5.40;3.83;;;;;;;20.82;46.88;101487.33;1679072;84;21140;-79
2022/10/08 04:06:14;;;;;;;5.20;3.90;;;;;;;20.81;46.90;101488.45;1679151;85;21050;-79
2022/10/08 04:08:40;;;;;;;4.53;3.67;;;;;;;20.83;46.88;101485.39;1706058;83;21109;-80
2022/10/08 04:11:09;;;;;;;4.42;3.62;;;;;;;20.82;46.89;101490.09;1710089;83;21092;-80
2022/10/08 04:13:36;;;;;;;4.00;3.58;;;;;;;20.83;46.88;101491.75;1645898;86;21066;-80
2022/10/08 04:16:05;;;;;;;4.30;3.77;;;;;;;20.83;46.89;101489.53;1645600;86;21235;-80
2022/10/08 04:18:31;;;;;;;3.77;3.42;;;;;;;20.83;46.89;101488.98;1645498;86;21138;-80
2022/10/08 04:21:02;;;;;;;3.80;3.47;;;;;;;20.83;46.88;101485.39;1645133;86;21577;-79
2022/10/08 04:23:31;;;;;;;4.40;3.40;;;;;;;20.82;46.89;101487.33;1628782;87;21147;-79
2022/10/08 04:25:57;;;;;;;5.00;4.25;;;;;;;20.83;46.87;101485.39;1645626;86;21074;-80
2022/10/08 04:28:24;;;;;;;6.70;3.60;;;;;;;20.83;46.87;101481.23;1645533;86;21132;-80
2022/10/08 04:31:05;;;;;;;5.20;3.90;;;;;;;20.82;46.87;101481.80;1645676;86;21107;-80
2022/10/08 04:33:33;;;;;;;6.42;4.20;;;;;;;20.82;46.85;101480.97;1645343;86;21115;-79
2022/10/08 04:35:59;;;;;;;5.72;3.70;;;;;;;20.82;46.85;101475.44;1645707;86;21715;-80
2022/10/08 04:38:25;;;;;;;4.15;3.42;;;;;;;20.81;46.85;101476.00;1645549;86;21067;-80
2022/10/08 04:41:05;;;;;;;5.92;3.70;;;;;;;20.82;46.87;101476.83;1651681;86;21847;-80
2022/10/08 04:43:33;;;;;;;4.63;4.13;;;;;;;20.82;46.87;101479.03;1709839;83;21514;-79
2022/10/08 04:45:59;;;;;;;4.37;3.65;;;;;;;20.82;46.84;101474.06;1670645;83;21040;-80
2022/10/08 04:48:25;;;;;;;5.53;3.50;;;;;;;20.83;46.84;101484.00;1685987;83;21095;-80
2022/10/08 04:50:59;;;;;;;4.67;4.00;;;;;;;20.82;46.85;101476.83;1685940;84;21659;-80
2022/10/08 04:53:25;;;;;;;4.30;3.60;;;;;;;20.81;46.85;101479.33;1685798;84;21535;-80
2022/10/08 04:55:53;;;;;;;4.08;3.67;;;;;;;20.80;46.87;101482.64;1685647;84;21048;-79
2022/10/08 04:58:21;;;;;;;4.72;4.00;;;;;;;20.81;46.87;101482.91;1685632;84;22124;-80
2022/10/08 05:00:48;;;;;;;4.85;3.62;;;;;;;20.81;46.85;101482.91;1685684;83;21801;-80
2022/10/08 05:03:14;;;;;;;4.37;3.83;;;;;;;20.81;46.85;101481.53;1685566;83;21053;-80
2022/10/08 05:05:44;;;;;;;4.80;4.20;;;;;;;20.80;46.85;101481.27;1685540;83;21131;-80
2022/10/08 05:08:11;;;;;;;4.83;4.00;;;;;;;20.81;46.87;101482.91;1685641;84;21064;-81
2022/10/08 05:10:37;;;;;;;4.47;4.08;;;;;;;20.82;46.84;101485.13;1685820;84;21052;-80
2022/10/08 05:13:03;;;;;;;4.25;3.58;;;;;;;20.81;46.85;101485.68;1685888;84;21351;-80
2022/10/08 05:15:30;;;;;;;4.25;3.60;;;;;;;20.81;46.87;101487.63;1685488;84;21048;-81
2022/10/08 05:17:56;;;;;;;4.55;4.10;;;;;;;20.81;46.85;101489.00;1680649;84;21992;-80
2022/10/08 05:20:22;;;;;;;5.45;3.83;;;;;;;20.80;46.87;101495.09;1618468;88;21064;-79
2022/10/08 05:22:48;;;;;;;4.20;3.72;;;;;;;20.80;46.88;101490.94;1644776;85;21077;-80
2022/10/08 05:25:14;;;;;;;8.68;3.72;;;;;;;20.81;46.87;101485.68;1629267;87;21008;-79
2022/10/08 05:27:41;;;;;;;4.80;4.00;;;;;;;20.81;46.88;101488.45;1616901;88;21084;-79
2022/10/08 05:30:08;;;;;;;4.90;3.52;;;;;;;20.81;46.87;101484.30;1628896;87;21127;-80
2022/10/08 05:32:35;;;;;;;5.95;4.33;;;;;;;20.81;46.87;101492.59;1632495;86;21590;-79
2022/10/08 05:35:01;;;;;;;5.05;4.00;;;;;;;20.81;46.87;101488.45;1719936;83;21127;-80
2022/10/08 05:37:27;;;;;;;4.45;4.05;;;;;;;20.80;46.87;101485.41;1719731;83;21087;-80
2022/10/08 05:39:53;;;;;;;7.10;4.17;;;;;;;20.82;46.87;101489.27;1720277;83;21063;-79
2022/10/08 05:42:19;;;;;;;4.78;4.17;;;;;;;20.81;46.87;101498.69;1720067;83;21736;-80
2022/10/08 05:44:46;;;;;;;4.58;4.10;;;;;;;20.80;46.85;101493.70;1719736;83;21146;-79
2022/10/08 05:47:12;;;;;;;5.15;4.45;;;;;;;20.81;46.84;101497.30;1720285;83;21092;-80
2022/10/08 05:49:38;;;;;;;5.25;4.58;;;;;;;20.82;46.87;101504.48;1720371;83;21048;-80
2022/10/08 05:52:05;;;;;;;5.10;4.35;;;;;;;20.82;46.85;101496.19;1700048;83;21020;-80
2022/10/08 05:54:31;;;;;;;4.37;3.95;;;;;;;20.80;46.83;101492.33;1707194;83;21226;-80
2022/10/08 05:56:57;;;;;;;6.17;4.20;;;;;;;20.81;46.83;101495.36;1706688;83;21566;-80
2022/10/08 05:59:24;;;;;;;5.10;4.05;;;;;;;20.81;46.85;101497.30;1716296;83;21139;-80
2022/10/08 06:01:50;;;;;;;4.62;3.95;;;;;;;20.81;46.87;101495.92;1658288;86;21137;-79
2022/10/08 06:04:19;;;;;;;4.60;4.20;;;;;;;20.82;46.89;101497.56;1685193;85;21128;-80
2022/10/08 06:06:45;;;;;;;6.97;4.12;;;;;;;20.82;46.88;101495.63;1684583;85;22087;-80
2022/10/08 06:09:14;;;;;;;5.70;4.15;;;;;;;20.80;46.87;101502.00;1656289;85;21057;-80
2022/10/08 06:11:41;;;;;;;6.37;4.33;;;;;;;20.80;46.90;101495.65;1685005;85;21060;-80
2022/10/08 06:14:10;;;;;;;5.28;4.37;;;;;;;20.80;46.90;101492.88;1684758;85;21129;-80
2022/10/08 06:16:42;;;;;;;5.37;4.33;;;;;;;20.81;46.89;101491.77;1656646;86;21080;-81
2022/10/08 06:19:09;;;;;;;7.92;4.37;;;;;;;20.80;46.91;101493.70;1657849;86;21164;-80
2022/10/08 06:21:35;;;;;;;4.92;3.98;;;;;;;20.79;46.91;101493.44;1684634;85;20988;-79
2022/10/08 06:24:07;;;;;;;4.80;4.17;;;;;;;20.80;46.91;101497.86;1720675;83;21099;-80
2022/10/08 06:26:36;;;;;;;5.05;4.28;;;;;;;20.81;46.92;101499.51;1700499;83;22276;-79
2022/10/08 06:29:09;;;;;;;5.78;4.58;;;;;;;20.81;46.92;101494.53;1732335;82;21064;-79
2022/10/08 06:31:36;;;;;;;5.40;4.25;;;;;;;20.81;46.92;101498.13;1738355;82;21232;-79
2022/10/08 06:34:03;;;;;;;5.12;4.40;;;;;;;20.81;46.91;101495.92;1738225;82;21048;-80
2022/10/08 06:36:29;;;;;;;4.58;3.95;;;;;;;20.81;46.94;101496.74;1725883;82;21092;-80
2022/10/08 06:39:02;;;;;;;7.00;4.35;;;;;;;20.81;46.91;101497.30;1725743;82;21060;-80
2022/10/08 06:41:33;;;;;;;6.75;4.35;;;;;;;20.82;46.93;101499.77;1735885;82;21625;-80
2022/10/08 06:43:58;;;;;;;;;;;;;;;20.79;46.92;101489.30;1740442;81;21646;-79
2022/10/08 06:46:25;;;;;;;5.05;3.87;;;;;;;20.81;46.94;101491.21;1738808;81;20147;-80
2022/10/08 06:48:51;;;;;;;6.00;4.00;;;;;;;20.80;46.91;101498.41;1737849;82;22219;-79
2022/10/08 06:51:18;;;;;;;6.75;4.53;;;;;;;20.80;46.91;101495.09;1737971;82;21578;-80
2022/10/08 06:53:51;;;;;;;5.05;4.55;;;;;;;20.82;46.91;101499.77;1738387;81;21606;-80
2022/10/08 06:56:17;;;;;;;6.62;4.42;;;;;;;20.81;46.91;101498.13;1738049;81;21515;-80
2022/10/08 06:58:43;;;;;;;4.22;3.72;;;;;;;20.82;46.90;101498.95;1736787;81;21073;-80
2022/10/08 07:01:23;;;;;;;5.40;4.20;;;;;;;20.82;46.91;101494.80;1737673;82;21032;-79
2022/10/08 07:03:55;;;;;;;6.42;4.10;;;;;;;20.83;46.93;101495.06;1728155;82;21146;-79
2022/10/08 07:06:21;;;;;;;7.50;4.40;;;;;;;20.83;46.90;101497.28;1689812;84;21140;-80
2022/10/08 07:08:53;;;;;;;5.47;4.30;;;;;;;20.83;46.90;101495.06;1689801;83;21230;-80
2022/10/08 07:11:20;;;;;;;4.37;3.92;;;;;;;20.83;46.89;101497.28;1691120;82;21554;-79
2022/10/08 07:13:49;;;;;;;5.15;4.65;;;;;;;20.83;46.89;101497.28;1660987;84;21061;-79
2022/10/08 07:16:18;;;;;;;5.97;4.40;;;;;;;20.84;46.89;101498.06;1687402;84;21083;-80
2022/10/08 07:18:45;;;;;;;5.45;3.90;;;;;;;20.84;46.87;101499.45;1688849;84;21088;-79
2022/10/08 07:21:12;;;;;;;6.70;4.08;;;;;;;20.85;46.87;101497.78;1740674;82;21883;-79
2022/10/08 07:23:39;;;;;;;4.67;3.75;;;;;;;20.85;46.87;101495.57;1741002;82;22161;-79
2022/10/08 07:26:14;;;;;;;5.22;4.10;;;;;;;20.86;46.86;101499.42;1740704;82;21618;-79
2022/10/08 07:28:50;;;;;;;4.95;4.33;;;;;;;20.86;46.86;101493.89;1741265;82;21078;-80
2022/10/08 07:31:22;;;;;;;4.50;3.90;;;;;;;20.85;46.85;101493.63;1739692;82;21033;-79
2022/10/08 07:33:49;;;;;;;5.03;3.85;;;;;;;20.86;46.86;101493.89;1738739;82;21076;-79
2022/10/08 07:36:18;;;;;;;5.47;4.17;;;;;;;20.86;46.84;101489.75;1738234;82;21040;-79
2022/10/08 07:38:44;;;;;;;4.65;4.15;;;;;;;20.87;46.85;101489.19;1737993;82;21089;-79
2022/10/08 07:41:11;;;;;;;5.58;4.55;;;;;;;20.88;46.84;101490.80;1738265;82;21068;-79
2022/10/08 07:43:40;;;;;;;5.78;4.20;;;;;;;20.87;46.84;101483.66;1731234;82;21266;-79
2022/10/08 07:46:05;;;;;;;4.85;3.75;;;;;;;20.88;46.85;101488.04;1720621;82;21274;-80
2022/10/08 07:48:32;;;;;;;4.53;4.08;;;;;;;20.88;46.84;101483.33;1715136;82;21502;-80
2022/10/08 07:51:10;;;;;;;4.75;4.17;;;;;;;20.87;46.84;101480.33;1720148;82;21585;-79
2022/10/08 07:53:37;;;;;;;4.10;3.70;;;;;;;20.89;46.83;101474.48;1688351;84;21502;-79
2022/10/08 07:56:07;;;;;;;5.05;4.20;;;;;;;20.89;46.80;101467.56;1688496;84;21145;-79
2022/10/08 07:58:33;;;;;;;5.30;4.17;;;;;;;20.89;46.80;101463.41;1688330;84;21990;-79
2022/10/08 08:01:00;;;;;;;5.92;4.17;;;;;;;20.89;46.80;101461.47;1688184;84;21082;-80
2022/10/08 08:03:26;;;;;;;5.25;4.12;;;;;;;20.90;46.80;101456.77;1688620;84;21551;-80
2022/10/08 08:05:53;;;;;;;4.90;3.98;;;;;;;20.89;46.79;101462.86;1651465;84;21585;-79
2022/10/08 08:08:24;;;;;;;4.42;3.90;;;;;;;20.90;46.81;101461.73;1739667;81;21056;-80
2022/10/08 08:10:56;;;;;;;4.47;4.08;;;;;;;20.89;46.79;101457.88;1672844;84;21186;-79
2022/10/08 08:13:23;;;;;;;4.70;3.90;;;;;;;20.89;46.79;101455.94;1682462;85;21041;-79
2022/10/08 08:15:58;;;;;;;5.28;4.12;;;;;;;20.90;46.81;101461.73;1682466;85;21104;-80
2022/10/08 08:18:27;;;;;;;4.95;3.72;;;;;;;20.90;46.79;101460.36;1680088;84;21597;-79
2022/10/08 08:21:00;;;;;;;4.30;3.90;;;;;;;20.90;46.79;101456.77;1679698;84;21068;-79
2022/10/08 08:23:32;;;;;;;4.20;3.80;;;;;;;20.90;46.79;101456.77;1679929;85;21139;-79
2022/10/08 08:26:04;;;;;;;4.97;3.98;;;;;;;20.90;46.79;101460.36;1679534;85;21049;-80
2022/10/08 08:28:30;;;;;;;4.78;3.83;;;;;;;20.92;46.78;101458.65;1694362;84;21092;-80
2022/10/08 08:31:17;;;;;;;4.20;3.72;;;;;;;20.90;46.78;101449.85;1693983;83;21053;-79
2022/10/08 08:33:50;;;;;;;4.60;4.05;;;;;;;20.91;46.79;101445.97;1673803;84;21079;-80
2022/10/08 08:36:17;;;;;;;4.87;3.87;;;;;;;20.90;46.79;101446.52;1656089;86;21903;-79
2022/10/08 08:38:44;;;;;;;5.05;3.90;;;;;;;20.90;46.77;101439.61;1656194;86;21542;-79
2022/10/08 08:41:31;;;;;;;3.92;3.52;;;;;;;20.91;46.78;101444.59;1656083;86;21115;-79
2022/10/08 08:44:00;;;;;;;4.42;3.85;;;;;;;20.92;46.78;101446.20;1655988;86;21088;-80
2022/10/08 08:46:29;;;;;;;4.20;3.80;;;;;;;20.90;46.77;101440.99;1655949;86;21151;-80
2022/10/08 08:48:56;;;;;;;4.30;3.90;;;;;;;20.90;46.77;101440.99;1656127;85;21232;-80
2022/10/08 08:51:23;;;;;;;5.85;3.75;;;;;;;20.91;46.79;101433.52;1628228;86;21139;-79
2022/10/08 08:53:49;;;;;;;4.50;3.55;;;;;;;20.92;46.76;101437.34;1656095;85;21594;-79
2022/10/08 08:56:15;;;;;;;4.30;3.80;;;;;;;20.92;46.80;101440.67;1656029;85;21093;-79
2022/10/08 08:59:02;;;;;;;4.72;4.20;;;;;;;20.92;46.77;101433.75;1627988;86;21119;-79
2022/10/08 09:01:38;;;;;;;4.17;3.62;;;;;;;20.92;46.80;101437.34;1655159;85;21241;-80
2022/10/08 09:04:12;;;;;;;5.12;3.83;;;;;;;20.92;46.76;101426.28;1677659;85;21068;-79
2022/10/08 09:06:47;;;;;;;4.15;3.75;;;;;;;20.92;46.77;101427.66;1727821;80;32522;-80
2022/10/08 09:09:38;;;;;;;4.35;3.80;;;;;;;20.92;46.76;101420.75;1729408;81;21587;-79
2022/10/08 09:12:28;;;;;;;4.12;3.70;;;;;;;20.92;46.77;101423.52;1729283;81;21087;-80
2022/10/08 09:14:58;;;;;;;3.83;3.42;;;;;;;20.91;46.76;101419.13;1729836;81;21116;-80
2022/10/08 09:17:37;;;;;;;5.35;3.77;;;;;;;20.92;46.76;101424.89;1729506;82;21001;-79
2022/10/08 09:20:05;;;;;;;4.60;3.60;;;;;;;20.93;46.76;101415.48;1709001;82;21071;-80
2022/10/08 09:22:37;;;;;;;4.67;3.85;;;;;;;20.93;46.77;101410.51;1729317;82;21033;-80
2022/10/08 09:25:11;;;;;;;4.10;3.70;;;;;;;20.93;46.79;101414.09;1729980;82;21072;-80
2022/10/08 09:27:58;;;;;;;4.33;3.92;;;;;;;20.94;46.79;101408.01;1728902;82;22155;-80
2022/10/08 09:30:43;;;;;;;5.08;4.15;;;;;;;20.94;46.77;101402.48;1702864;82;21036;-80
2022/10/08 09:33:18;;;;;;;3.70;3.40;;;;;;;20.94;46.77;101399.70;1702338;82;21518;-80
2022/10/08 09:35:49;;;;;;;4.10;3.50;;;;;;;20.93;46.76;101392.53;1702766;82;21029;-80
2022/10/08 09:38:28;;;;;;;4.72;3.87;;;;;;;20.93;46.79;101390.59;1702532;83;21055;-80
2022/10/08 09:41:06;;;;;;;5.28;3.60;;;;;;;20.93;46.79;101387.82;1702060;83;21815;-80
2022/10/08 09:43:34;;;;;;;4.67;3.95;;;;;;;20.94;46.77;101384.50;1701576;82;21431;-80
2022/10/08 09:46:11;;;;;;;4.83;3.65;;;;;;;20.94;46.80;101383.94;1701621;82;21134;-80
2022/10/08 09:48:38;;;;;;;4.10;3.70;;;;;;;20.94;46.77;101381.73;1701930;83;21079;-80
2022/10/08 09:51:08;;;;;;;4.87;3.85;;;;;;;20.94;46.79;101378.97;1702316;82;21138;-80
2022/10/08 09:53:53;;;;;;;3.72;3.27;;;;;;;20.94;46.80;101377.02;1702342;82;21828;-79
2022/10/08 09:56:26;;;;;;;4.08;3.67;;;;;;;20.94;46.81;101366.52;1681912;83;21672;-80
2022/10/08 09:58:59;;;;;;;4.35;3.95;;;;;;;20.94;46.81;101367.34;1674312;84;21118;-80
2022/10/08 10:01:26;;;;;;;5.45;3.67;;;;;;;20.94;46.79;101363.75;1673805;84;21549;-80
2022/10/08 10:03:55;;;;;;;4.62;3.77;;;;;;;20.94;46.79;101371.48;1674270;84;21039;-80
2022/10/08 10:06:28;;;;;;;4.75;3.60;;;;;;;20.95;46.79;101366.22;1690780;83;21248;-80
2022/10/08 10:09:03;;;;;;;4.05;3.52;;;;;;;20.95;46.81;101362.07;1699913;84;21049;-80
2022/10/08 10:11:46;;;;;;;3.90;3.50;;;;;;;20.95;46.79;101362.07;1700512;84;22226;-80
2022/10/08 10:14:42;;;;;;;3.95;3.55;;;;;;;20.94;46.80;101349.36;1699973;84;21096;-80
2022/10/08 10:17:34;;;;;;;4.30;3.80;;;;;;;20.94;46.80;101341.06;1700438;84;21584;-80
2022/10/08 10:20:23;;;;;;;4.30;3.47;;;;;;;20.95;46.80;101339.12;1700159;83;21147;-80
2022/10/08 10:23:09;;;;;;;5.55;3.55;;;;;;;20.95;46.78;101339.12;1681008;84;21042;-80
2022/10/08 10:25:59;;;;;;;3.87;3.47;;;;;;;20.94;46.79;101331.38;1700169;83;21121;-80
2022/10/08 10:28:43;;;;;;;3.42;3.12;;;;;;;20.94;46.78;101327.23;1700920;84;21112;-80
2022/10/08 10:31:41;;;;;;;5.20;3.67;;;;;;;20.93;46.79;101318.67;1700302;84;21057;-80
2022/10/08 10:34:18;;;;;;;4.03;3.62;;;;;;;20.93;46.79;101314.52;1700597;84;21986;-80
2022/10/08 10:37:01;;;;;;;4.47;3.60;;;;;;;20.93;46.79;101317.28;1700440;83;21097;-81
2022/10/08 10:39:59;;;;;;;5.35;3.72;;;;;;;20.94;46.79;101320.31;1700474;84;21034;-80
2022/10/08 10:42:54;;;;;;;4.80;3.80;;;;;;;20.94;46.80;101309.25;1722061;82;21120;-80
2022/10/08 10:45:23;;;;;;;4.30;3.90;;;;;;;20.93;46.79;101310.38;1744704;82;21060;-80
2022/10/08 10:47:50;;;;;;;4.05;3.30;;;;;;;20.94;46.79;101304.28;1745363;82;21582;-80
2022/10/08 10:50:23;;;;;;;4.87;3.52;;;;;;;20.94;46.80;101295.98;1745457;82;21048;-81
2022/10/08 10:53:19;;;;;;;3.52;3.22;;;;;;;20.94;46.82;101294.59;1713871;81;21089;-81
2022/10/08 10:56:13;;;;;;;4.72;3.67;;;;;;;20.94;46.81;101293.22;1700339;82;21053;-80
2022/10/08 10:59:06;;;;;;;3.80;3.40;;;;;;;20.94;46.80;101282.97;1700419;84;21033;-80
2022/10/08 11:01:49;;;;;;;5.37;3.50;;;;;;;20.94;46.81;101273.30;1700129;84;21132;-80
2022/10/08 11:04:39;;;;;;;4.08;3.40;;;;;;;20.95;46.79;101285.18;1700190;84;21081;-80
2022/10/08 11:07:41;;;;;;;4.33;3.52;;;;;;;20.94;46.81;101266.38;1699761;84;21299;-80
2022/10/08 11:10:44;;;;;;;5.08;3.50;;;;;;;20.94;46.81;101260.84;1700304;84;21029;-81
2022/10/08 11:13:43;;;;;;;8.10;3.58;;;;;;;20.94;46.79;101256.70;1647719;86;21072;-80
2022/10/08 11:16:53;;;;;;;5.03;3.45;;;;;;;20.93;46.79;101253.67;1641608;86;21236;-80
2022/10/08 11:19:36;;;;;;;5.67;3.35;;;;;;;20.94;46.77;101247.58;1691947;84;21556;-80
2022/10/08 11:22:31;;;;;;;3.58;3.17;;;;;;;20.94;46.77;101244.81;1701741;84;21069;-80
2022/10/08 11:25:15;;;;;;;3.80;3.37;;;;;;;20.93;46.80;101233.48;1701203;84;21371;-80
2022/10/08 11:27:53;;;;;;;3.90;3.45;;;;;;;20.93;46.80;101242.60;1700568;84;21634;-80
2022/10/08 11:30:24;;;;;;;4.35;3.42;;;;;;;20.93;46.82;101231.54;1696792;82;21109;-81
2022/10/08 11:32:53;;;;;;;4.15;3.25;;;;;;;20.93;46.83;101231.54;1699930;82;22239;-80
2022/10/08 11:35:28;;;;;;;3.92;3.15;;;;;;;20.93;46.82;101226.01;1700302;82;21058;-80
2022/10/08 11:38:09;;;;;;;3.80;3.10;;;;;;;20.94;46.85;101220.73;1699835;83;21064;-81
2022/10/08 11:40:48;;;;;;;4.20;3.20;;;;;;;20.94;46.85;101215.20;1700270;84;21603;-80
2022/10/08 11:43:25;;;;;;;7.17;3.40;;;;;;;20.95;46.83;101220.18;1699795;84;21123;-81
2022/10/08 11:46:30;;;;;;;4.83;3.40;;;;;;;20.95;46.83;101211.88;1700263;82;21025;-80
2022/10/08 11:49:03;;;;;;;4.37;3.52;;;;;;;20.95;46.82;101208.55;1700094;82;21077;-81
2022/10/08 11:51:32;;;;;;;3.95;3.17;;;;;;;20.94;46.83;101205.52;1700431;83;21018;-81